Time;durP1;ratioP1;P1;durP2;ratioP2;P2;SDS_P1;SDS_P2;PMS_P1;PMS_P2;Temp;Humidity;BMP_temperature;BMP_pressure;BME280_temperature;BME280_humidity;BME280_pressure;Samples;Min_cycle;Max_cycle;Signal;HPM_P1;HPM_P2
2023/04/15 00:00:20;;;;;;;2.97;1.20;;;;;;;;;;5111277;28;20614;-76
2023/04/15 00:02:49;;;;;;;2.70;1.03;;;;;;;;;;5111631;28;20220;-77
2023/04/15 00:05:16;;;;;;;3.00;1.20;;;;;;;;;;5111649;28;20236;-77
2023/04/15 00:07:44;;;;;;;4.43;1.20;;;;;;;;;;5111288;28;20654;-77
2023/04/15 00:10:14;;;;;;;6.67;1.50;;;;;;;;;;5110950;28;20201;-77
2023/04/15 00:12:41;;;;;;;6.27;1.30;;;;;;;;;;5111313;28;20200;-77
2023/04/15 00:15:09;;;;;;;6.77;1.40;;;;;;;;;;5111629;28;20201;-76
2023/04/15 00:17:37;;;;;;;4.90;1.30;;;;;;;;;;5111794;28;20285;-77
2023/04/15 00:20:07;;;;;;;4.23;1.40;;;;;;;;;;5111123;28;20201;-76
2023/04/15 00:22:34;;;;;;;5.03;1.57;;;;;;;;;;5111394;28;20662;-77
2023/04/15 00:25:02;;;;;;;5.77;1.30;;;;;;;;;;5111245;28;20220;-77
2023/04/15 00:27:29;;;;;;;5.10;1.23;;;;;;;;;;5110239;28;20196;-76
2023/04/15 00:29:57;;;;;;;3.17;1.27;;;;;;;;;;5095584;28;20208;-75
2023/04/15 00:32:24;;;;;;;3.80;1.10;;;;;;;;;;5095408;28;20201;-76
2023/04/15 00:34:51;;;;;;;4.93;1.10;;;;;;;;;;5092577;28;20290;-77
2023/04/15 00:37:20;;;;;;;4.90;0.90;;;;;;;;;;5111258;28;20623;-76
2023/04/15 00:39:47;;;;;;;3.67;1.07;;;;;;;;;;5110691;28;20250;-76
2023/04/15 00:42:14;;;;;;;5.53;1.17;;;;;;;;;;5110810;28;20324;-76
2023/04/15 00:44:41;;;;;;;4.33;0.90;;;;;;;;;;5111097;28;20197;-76
2023/04/15 00:47:09;;;;;;;5.57;1.20;;;;;;;;;;5111862;28;20196;-76
2023/04/15 00:49:36;;;;;;;6.17;1.03;;;;;;;;;;5110962;28;20229;-77
2023/04/15 00:52:03;;;;;;;4.53;1.47;;;;;;;;;;5111279;28;20292;-76
2023/04/15 00:54:32;;;;;;;4.13;0.80;;;;;;;;;;5110519;28;20670;-76
2023/04/15 00:56:59;;;;;;;5.00;1.13;;;;;;;;;;5111423;28;20251;-76
2023/04/15 00:59:26;;;;;;;2.53;0.90;;;;;;;;;;5111241;28;20200;-76
2023/04/15 01:01:54;;;;;;;6.73;1.10;;;;;;;;;;5111084;28;20224;-77
2023/04/15 01:04:21;;;;;;;2.57;0.90;;;;;;;;;;5110956;28;20288;-77
2023/04/15 01:06:48;;;;;;;5.27;1.20;;;;;;;;;;5111154;28;20223;-76
2023/04/15 01:09:15;;;;;;;4.63;1.00;;;;;;;;;;5110215;28;20320;-76
2023/04/15 01:11:44;;;;;;;4.97;1.00;;;;;;;;;;5110968;28;20281;-76
2023/04/15 01:14:11;;;;;;;9.93;1.20;;;;;;;;;;5113592;28;20215;-77
2023/04/15 01:16:39;;;;;;;4.07;1.00;;;;;;;;;;5114338;28;20328;-77
2023/04/15 01:19:09;;;;;;;6.57;1.10;;;;;;;;;;5114527;28;20373;-76
2023/04/15 01:21:37;;;;;;;2.83;0.90;;;;;;;;;;5114361;28;20204;-76
2023/04/15 01:24:09;;;;;;;6.00;1.13;;;;;;;;;;5114085;28;20291;-76
2023/04/15 01:26:38;;;;;;;5.87;1.17;;;;;;;;;;5114023;28;20587;-76
2023/04/15 01:29:05;;;;;;;3.90;1.00;;;;;;;;;;5114298;28;20248;-77
2023/04/15 01:31:32;;;;;;;5.00;0.93;;;;;;;;;;5114317;28;20284;-76
2023/04/15 01:34:00;;;;;;;3.23;0.83;;;;;;;;;;5114148;28;20298;-77
2023/04/15 01:36:28;;;;;;;4.80;1.00;;;;;;;;;;5114414;28;20574;-76
2023/04/15 01:38:56;;;;;;;5.57;0.90;;;;;;;;;;5114037;28;20200;-77
2023/04/15 01:41:25;;;;;;;3.90;1.13;;;;;;;;;;5113606;28;20226;-76
2023/04/15 01:43:54;;;;;;;4.90;1.10;;;;;;;;;;5114400;28;20275;-77
2023/04/15 01:46:21;;;;;;;8.00;1.20;;;;;;;;;;5114087;28;20204;-76
2023/04/15 01:48:48;;;;;;;3.90;1.10;;;;;;;;;;5113812;28;20717;-76
2023/04/15 01:51:16;;;;;;;4.27;1.03;;;;;;;;;;5113701;28;20288;-76
2023/04/15 01:53:43;;;;;;;4.13;1.20;;;;;;;;;;5113859;28;20232;-76
2023/04/15 01:56:10;;;;;;;3.30;1.03;;;;;;;;;;5113834;28;20286;-76
2023/04/15 01:58:39;;;;;;;4.27;1.00;;;;;;;;;;5113398;28;20688;-75
2023/04/15 02:01:09;;;;;;;3.83;1.10;;;;;;;;;;5114025;28;20199;-76
2023/04/15 02:03:36;;;;;;;3.10;1.10;;;;;;;;;;5113476;28;20198;-77
2023/04/15 02:06:05;;;;;;;4.77;1.20;;;;;;;;;;5112931;28;20621;-76
2023/04/15 02:08:32;;;;;;;4.47;1.33;;;;;;;;;;5113479;28;20686;-76
2023/04/15 02:11:00;;;;;;;4.07;1.07;;;;;;;;;;5113583;28;20197;-75
2023/04/15 02:13:27;;;;;;;4.53;1.00;;;;;;;;;;5113405;28;20198;-77
2023/04/15 02:15:55;;;;;;;4.43;1.10;;;;;;;;;;5105234;28;20696;-76
2023/04/15 02:18:24;;;;;;;3.90;1.30;;;;;;;;;;5093226;28;20230;-76
2023/04/15 02:20:52;;;;;;;5.70;1.20;;;;;;;;;;5092353;28;20290;-77
2023/04/15 02:23:19;;;;;;;6.53;1.03;;;;;;;;;;5093190;28;20758;-76
2023/04/15 02:25:49;;;;;;;6.90;1.17;;;;;;;;;;5092809;28;20197;-77
2023/04/15 02:28:16;;;;;;;7.43;1.40;;;;;;;;;;5092385;28;20204;-77
2023/04/15 02:30:44;;;;;;;6.67;1.30;;;;;;;;;;5091705;28;20203;-77
2023/04/15 02:33:11;;;;;;;6.33;1.30;;;;;;;;;;5092530;28;20240;-77
2023/04/15 02:35:43;;;;;;;4.43;1.50;;;;;;;;;;5091848;28;20298;-77
2023/04/15 02:38:10;;;;;;;5.77;1.23;;;;;;;;;;5092596;28;20235;-76
2023/04/15 02:40:37;;;;;;;6.03;1.17;;;;;;;;;;5092119;28;20734;-78
2023/04/15 02:43:05;;;;;;;5.73;1.73;;;;;;;;;;5092544;28;20194;-77
2023/04/15 02:45:33;;;;;;;4.90;1.60;;;;;;;;;;5092562;28;20199;-77
2023/04/15 02:48:04;;;;;;;7.70;1.20;;;;;;;;;;5092043;28;20195;-77
2023/04/15 02:50:32;;;;;;;5.53;1.40;;;;;;;;;;5092456;28;20199;-77
2023/04/15 02:53:01;;;;;;;7.53;1.23;;;;;;;;;;5092368;28;20281;-77
2023/04/15 02:55:28;;;;;;;5.87;1.20;;;;;;;;;;5091898;28;20203;-76
2023/04/15 02:57:57;;;;;;;4.67;1.23;;;;;;;;;;5091999;28;20244;-77
2023/04/15 03:00:25;;;;;;;6.53;1.40;;;;;;;;;;5092294;28;20678;-76
2023/04/15 03:02:55;;;;;;;6.73;1.20;;;;;;;;;;5091625;28;20566;-77
2023/04/15 03:05:24;;;;;;;5.87;1.30;;;;;;;;;;5091815;28;20277;-77
2023/04/15 03:07:51;;;;;;;7.67;1.50;;;;;;;;;;5092311;28;20240;-77
2023/04/15 03:10:20;;;;;;;8.53;1.80;;;;;;;;;;5092047;28;20222;-77
2023/04/15 03:12:47;;;;;;;6.50;1.50;;;;;;;;;;5094706;28;20289;-77
2023/04/15 03:15:14;;;;;;;6.13;1.43;;;;;;;;;;5112505;28;20280;-77
2023/04/15 03:17:41;;;;;;;5.60;1.23;;;;;;;;;;5112769;28;20276;-78
2023/04/15 03:20:09;;;;;;;5.90;1.37;;;;;;;;;;5111760;28;20220;-77
2023/04/15 03:22:36;;;;;;;9.97;1.27;;;;;;;;;;5111962;28;20293;-77
2023/04/15 03:25:03;;;;;;;7.70;1.40;;;;;;;;;;5112297;28;20606;-76
2023/04/15 03:27:32;;;;;;;9.63;1.70;;;;;;;;;;5112104;28;20300;-77
2023/04/15 03:29:59;;;;;;;6.33;1.60;;;;;;;;;;5111755;28;20316;-76
2023/04/15 03:32:26;;;;;;;5.17;1.30;;;;;;;;;;5111770;28;20292;-77
2023/04/15 03:34:53;;;;;;;5.80;1.50;;;;;;;;;;5111597;28;20204;-76
2023/04/15 03:37:20;;;;;;;6.40;1.97;;;;;;;;;;5111055;28;20723;-76
2023/04/15 03:39:47;;;;;;;4.93;1.57;;;;;;;;;;5111658;28;20698;-77
2023/04/15 03:42:15;;;;;;;4.80;1.30;;;;;;;;;;5111493;28;20649;-77
2023/04/15 03:44:43;;;;;;;8.27;1.47;;;;;;;;;;5111943;28;20190;-77
2023/04/15 03:47:11;;;;;;;6.53;1.50;;;;;;;;;;5111266;28;20289;-77
2023/04/15 03:49:38;;;;;;;4.10;1.17;;;;;;;;;;5111635;28;20264;-76
2023/04/15 03:52:05;;;;;;;4.47;1.30;;;;;;;;;;5111932;28;20190;-77
2023/04/15 03:54:32;;;;;;;6.33;1.57;;;;;;;;;;5112111;28;20288;-76
2023/04/15 03:57:00;;;;;;;9.67;2.10;;;;;;;;;;5111882;28;20296;-78
2023/04/15 03:59:27;;;;;;;7.83;1.70;;;;;;;;;;5111686;28;20236;-76
2023/04/15 04:01:55;;;;;;;8.60;1.70;;;;;;;;;;5111046;28;20277;-76
2023/04/15 04:04:23;;;;;;;5.17;1.37;;;;;;;;;;5111544;28;20273;-77
2023/04/15 04:06:50;;;;;;;8.63;1.43;;;;;;;;;;5111614;28;20197;-77
2023/04/15 04:09:17;;;;;;;10.93;1.60;;;;;;;;;;5111507;28;20229;-77
2023/04/15 04:11:45;;;;;;;8.80;1.80;;;;;;;;;;5111695;28;20285;-76
2023/04/15 04:14:12;;;;;;;9.83;1.83;;;;;;;;;;5111453;28;20198;-76
2023/04/15 04:16:39;;;;;;;5.00;1.60;;;;;;;;;;5103206;28;20243;-77
2023/04/15 04:19:08;;;;;;;7.80;1.80;;;;;;;;;;5091379;28;20230;-77
2023/04/15 04:21:35;;;;;;;6.27;1.60;;;;;;;;;;5091680;28;20195;-77
2023/04/15 04:24:02;;;;;;;5.97;1.40;;;;;;;;;;5091222;28;20285;-76
2023/04/15 04:26:30;;;;;;;3.87;1.30;;;;;;;;;;5091126;28;20230;-77
2023/04/15 04:28:57;;;;;;;5.50;1.40;;;;;;;;;;5090895;28;20276;-77
2023/04/15 04:31:24;;;;;;;8.43;1.47;;;;;;;;;;5090514;28;20222;-77
2023/04/15 04:33:51;;;;;;;6.43;1.20;;;;;;;;;;5090820;28;20673;-77
2023/04/15 04:36:20;;;;;;;5.20;1.30;;;;;;;;;;5091015;28;20198;-76
2023/04/15 04:38:47;;;;;;;5.57;1.70;;;;;;;;;;5090713;28;20233;-77
2023/04/15 04:41:14;;;;;;;6.17;1.40;;;;;;;;;;5091018;28;20313;-77
2023/04/15 04:43:41;;;;;;;8.33;1.77;;;;;;;;;;5091284;28;20292;-77
2023/04/15 04:46:09;;;;;;;6.47;1.50;;;;;;;;;;5090331;28;20205;-77
2023/04/15 04:48:36;;;;;;;5.07;1.43;;;;;;;;;;5093899;28;20202;-77
2023/04/15 04:51:03;;;;;;;5.87;1.40;;;;;;;;;;5095084;28;20230;-77
2023/04/15 04:53:32;;;;;;;7.57;1.80;;;;;;;;;;5094742;28;20294;-77
2023/04/15 04:55:59;;;;;;;8.10;1.40;;;;;;;;;;5094565;28;20613;-77
2023/04/15 04:58:26;;;;;;;6.67;1.43;;;;;;;;;;5094356;28;20194;-76
2023/04/15 05:00:54;;;;;;;5.97;1.63;;;;;;;;;;5094354;28;20289;-78
2023/04/15 05:03:21;;;;;;;9.70;1.87;;;;;;;;;;5095010;28;20229;-77
2023/04/15 05:05:49;;;;;;;6.97;1.63;;;;;;;;;;5094207;28;20205;-76
2023/04/15 05:08:16;;;;;;;11.03;2.00;;;;;;;;;;5094433;28;20211;-77
2023/04/15 05:10:44;;;;;;;7.77;1.60;;;;;;;;;;5094097;28;20260;-77
2023/04/15 05:13:12;;;;;;;6.90;1.60;;;;;;;;;;5100707;28;20549;-77
2023/04/15 05:15:40;;;;;;;6.93;1.40;;;;;;;;;;5114823;28;20220;-77
2023/04/15 05:18:07;;;;;;;7.03;1.60;;;;;;;;;;5114293;28;20749;-76
2023/04/15 05:20:34;;;;;;;6.97;1.90;;;;;;;;;;5114518;28;20285;-77
2023/04/15 05:23:01;;;;;;;7.17;1.67;;;;;;;;;;5114759;28;20216;-77
2023/04/15 05:25:28;;;;;;;7.63;1.90;;;;;;;;;;5114646;28;20224;-77
2023/04/15 05:27:57;;;;;;;8.10;1.80;;;;;;;;;;5114214;28;20214;-77
2023/04/15 05:30:24;;;;;;;8.73;1.73;;;;;;;;;;5113881;28;20331;-77
2023/04/15 05:32:51;;;;;;;6.40;1.50;;;;;;;;;;5114470;28;20292;-77
2023/04/15 05:35:19;;;;;;;6.43;1.50;;;;;;;;;;5114151;28;20233;-76
2023/04/15 05:37:46;;;;;;;9.70;1.50;;;;;;;;;;5114458;28;20197;-77
2023/04/15 05:40:14;;;;;;;9.93;1.57;;;;;;;;;;5113805;28;20323;-76
2023/04/15 05:42:41;;;;;;;9.37;1.60;;;;;;;;;;5114154;28;20209;-76
2023/04/15 05:45:10;;;;;;;10.20;2.20;;;;;;;;;;5113651;28;20236;-77
2023/04/15 05:47:37;;;;;;;7.83;2.20;;;;;;;;;;5113943;28;20296;-76
2023/04/15 05:50:05;;;;;;;9.93;2.27;;;;;;;;;;5113581;28;20308;-77
2023/04/15 05:52:32;;;;;;;11.10;1.90;;;;;;;;;;5114131;28;20228;-76
2023/04/15 05:54:59;;;;;;;7.93;1.90;;;;;;;;;;5113532;28;20218;-77
2023/04/15 05:57:26;;;;;;;9.03;1.83;;;;;;;;;;5114087;28;20282;-77
2023/04/15 05:59:56;;;;;;;6.80;1.77;;;;;;;;;;5112370;28;20263;-77
2023/04/15 06:02:25;;;;;;;7.27;2.20;;;;;;;;;;5113721;28;20285;-78
2023/04/15 06:04:52;;;;;;;7.53;1.90;;;;;;;;;;5113670;28;20248;-77
2023/04/15 06:07:19;;;;;;;8.43;2.10;;;;;;;;;;5113719;27;20201;-76
2023/04/15 06:09:47;;;;;;;8.33;1.97;;;;;;;;;;5113509;28;20224;-77
2023/04/15 06:12:14;;;;;;;13.67;2.07;;;;;;;;;;5113313;27;20202;-77
2023/04/15 06:14:42;;;;;;;8.90;1.97;;;;;;;;;;5113488;28;20233;-77
2023/04/15 06:17:09;;;;;;;7.73;1.97;;;;;;;;;;5113687;28;20288;-77
2023/04/15 06:19:38;;;;;;;7.07;1.90;;;;;;;;;;5113290;28;20239;-77
2023/04/15 06:22:06;;;;;;;9.27;1.90;;;;;;;;;;5113477;28;20197;-78
2023/04/15 06:24:33;;;;;;;6.50;1.73;;;;;;;;;;5113665;28;20267;-76
2023/04/15 06:27:01;;;;;;;14.07;2.70;;;;;;;;;;5112857;28;20285;-77
2023/04/15 06:29:28;;;;;;;9.03;2.70;;;;;;;;;;5113466;28;20197;-77
2023/04/15 06:31:55;;;;;;;8.57;2.00;;;;;;;;;;5112869;28;20225;-76
2023/04/15 06:34:22;;;;;;;5.40;1.83;;;;;;;;;;5113187;28;20190;-77
2023/04/15 06:36:51;;;;;;;7.57;1.60;;;;;;;;;;5112953;28;20301;-77
2023/04/15 06:39:18;;;;;;;10.13;2.63;;;;;;;;;;5112987;28;20221;-76
2023/04/15 06:41:46;;;;;;;6.20;1.70;;;;;;;;;;5112217;28;20264;-76
2023/04/15 06:44:13;;;;;;;19.07;2.97;;;;;;;;;;5112855;28;20316;-77
2023/04/15 06:46:40;;;;;;;11.73;2.35;;;;;;;;;;5112969;28;20228;-77
2023/04/15 06:49:07;;;;;;;8.18;1.73;;;;;;;;;;5113065;28;20218;-78
2023/04/15 06:51:35;;;;;;;8.02;1.85;;;;;;;;;;5112328;28;20599;-76
2023/04/15 06:54:05;;;;;;;8.10;1.98;;;;;;;;;;5112407;28;20686;-78
2023/04/15 06:56:32;;;;;;;6.10;1.73;;;;;;;;;;5111894;28;20197;-79
2023/04/15 06:58:59;;;;;;;6.85;1.67;;;;;;;;;;5109988;28;20344;-78
2023/04/15 07:01:26;;;;;;;7.30;1.83;;;;;;;;;;5102828;28;20209;-78
2023/04/15 07:03:54;;;;;;;6.20;1.95;;;;;;;;;;5092171;28;20233;-78
2023/04/15 07:06:21;;;;;;;8.50;2.20;;;;;;;;;;5091782;28;20218;-78
2023/04/15 07:08:48;;;;;;;7.53;2.10;;;;;;;;;;5092263;28;20281;-78
2023/04/15 07:11:17;;;;;;;8.55;1.90;;;;;;;;;;5090342;28;20226;-78
2023/04/15 07:13:44;;;;;;;9.15;1.88;;;;;;;;;;5109653;28;20202;-78
2023/04/15 07:16:12;;;;;;;6.68;1.60;;;;;;;;;;5112002;28;20662;-78
2023/04/15 07:18:39;;;;;;;8.57;1.95;;;;;;;;;;5112166;28;20289;-78
2023/04/15 07:21:06;;;;;;;10.90;2.10;;;;;;;;;;5111886;28;20670;-78
2023/04/15 07:23:33;;;;;;;12.23;2.28;;;;;;;;;;5111821;28;20225;-78
2023/04/15 07:26:01;;;;;;;6.13;2.05;;;;;;;;;;5111359;28;20233;-78
2023/04/15 07:28:29;;;;;;;4.97;1.92;;;;;;;;;;5111640;28;20209;-78
2023/04/15 07:30:57;;;;;;;8.48;2.10;;;;;;;;;;5111295;28;20225;-78
2023/04/15 07:33:24;;;;;;;5.97;1.90;;;;;;;;;;5111879;28;20293;-77
2023/04/15 07:35:51;;;;;;;5.30;1.80;;;;;;;;;;5111733;28;20229;-78
2023/04/15 07:38:18;;;;;;;11.48;2.15;;;;;;;;;;5111761;28;20440;-78
2023/04/15 07:40:47;;;;;;;4.50;2.00;;;;;;;;;;5111037;28;20320;-76
2023/04/15 07:43:14;;;;;;;5.07;1.63;;;;;;;;;;5110969;28;20214;-77
2023/04/15 07:45:43;;;;;;;5.72;1.42;;;;;;;;;;5110083;28;20232;-77
2023/04/15 07:48:10;;;;;;;6.20;1.67;;;;;;;;;;5111018;28;20206;-77
2023/04/15 07:50:37;;;;;;;6.65;1.60;;;;;;;;;;5111450;28;20217;-78
2023/04/15 07:53:05;;;;;;;5.55;1.58;;;;;;;;;;5112054;28;20190;-77
2023/04/15 07:55:32;;;;;;;4.60;1.50;;;;;;;;;;5111300;28;20244;-77
2023/04/15 07:57:59;;;;;;;4.15;1.30;;;;;;;;;;5111850;28;20229;-78
2023/04/15 08:00:27;;;;;;;6.80;1.70;;;;;;;;;;5111941;28;20228;-77
2023/04/15 08:02:56;;;;;;;6.63;1.55;;;;;;;;;;5111517;28;20208;-77
2023/04/15 08:05:23;;;;;;;5.63;1.50;;;;;;;;;;5111805;28;20270;-78
2023/04/15 08:07:50;;;;;;;3.60;1.48;;;;;;;;;;5111710;28;20711;-78
2023/04/15 08:10:17;;;;;;;5.13;1.58;;;;;;;;;;5110636;28;20221;-78
2023/04/15 08:12:47;;;;;;;3.33;1.10;;;;;;;;;;5111382;28;20204;-77
2023/04/15 08:15:15;;;;;;;3.28;1.23;;;;;;;;;;5112166;28;20193;-77
2023/04/15 08:17:42;;;;;;;3.97;1.40;;;;;;;;;;5111549;28;20197;-78
2023/04/15 08:20:12;;;;;;;5.47;1.40;;;;;;;;;;5111614;28;20198;-77
2023/04/15 08:22:39;;;;;;;6.07;1.42;;;;;;;;;;5113486;28;20250;-79
2023/04/15 08:25:07;;;;;;;2.80;1.00;;;;;;;;;;5115700;28;20190;-78
2023/04/15 08:27:35;;;;;;;4.57;1.30;;;;;;;;;;5115496;28;20197;-78
2023/04/15 08:30:02;;;;;;;3.33;0.95;;;;;;;;;;5115613;28;20229;-76
2023/04/15 08:32:29;;;;;;;2.25;1.10;;;;;;;;;;5099500;28;20637;-79
2023/04/15 08:34:57;;;;;;;3.28;1.00;;;;;;;;;;5108121;28;20190;-78
2023/04/15 08:37:25;;;;;;;5.65;1.35;;;;;;;;;;5102808;28;20718;-78
2023/04/15 08:39:52;;;;;;;4.60;1.35;;;;;;;;;;5109295;28;20197;-78
2023/04/15 08:42:21;;;;;;;3.00;0.98;;;;;;;;;;5115315;28;20301;-77
2023/04/15 08:44:49;;;;;;;3.72;1.10;;;;;;;;;;5115024;28;20728;-78
2023/04/15 08:47:18;;;;;;;5.53;1.20;;;;;;;;;;5115238;28;20217;-77
2023/04/15 08:49:47;;;;;;;5.95;1.15;;;;;;;;;;5115877;27;20288;-77
2023/04/15 08:52:15;;;;;;;2.88;1.02;;;;;;;;;;5114469;28;20314;-78
2023/04/15 08:54:43;;;;;;;3.60;0.98;;;;;;;;;;5114722;28;20190;-78
2023/04/15 08:57:11;;;;;;;4.25;0.95;;;;;;;;;;5115117;28;20305;-77
2023/04/15 08:59:38;;;;;;;2.80;0.90;;;;;;;;;;5115185;28;20285;-77
2023/04/15 09:02:05;;;;;;;4.97;1.10;;;;;;;;;;5114840;28;20209;-78
2023/04/15 09:04:34;;;;;;;2.85;0.88;;;;;;;;;;5114851;28;20198;-77
2023/04/15 09:07:01;;;;;;;4.45;1.00;;;;;;;;;;5115026;27;20288;-77
2023/04/15 09:09:28;;;;;;;5.57;1.42;;;;;;;;;;5114449;28;20289;-78
2023/04/15 09:11:57;;;;;;;3.38;0.90;;;;;;;;;;5114348;28;20226;-77
2023/04/15 09:14:24;;;;;;;4.90;1.10;;;;;;;;;;5114741;28;20197;-77
2023/04/15 09:16:58;;;;;;;5.15;1.20;;;;;;;;;;5114661;28;20289;-77
2023/04/15 09:19:25;;;;;;;3.42;1.00;;;;;;;;;;5114646;28;20198;-77
2023/04/15 09:21:54;;;;;;;3.97;0.90;;;;;;;;;;5114551;28;20197;-78
2023/04/15 09:24:21;;;;;;;2.90;0.90;;;;;;;;;;5121609;27;20733;-77
2023/04/15 09:26:48;;;;;;;4.15;0.85;;;;;;;;;;5113277;28;20205;-77
2023/04/15 09:29:17;;;;;;;4.05;1.10;;;;;;;;;;5114399;28;20289;-77
2023/04/15 09:31:44;;;;;;;4.45;0.98;;;;;;;;;;5112213;28;20313;-77
2023/04/15 09:34:11;;;;;;;3.72;0.93;;;;;;;;;;5111896;28;20222;-78
2023/04/15 09:36:54;;;;;;;3.88;1.00;;;;;;;;;;5113839;28;20209;-79
2023/04/15 09:39:22;;;;;;;4.75;1.35;;;;;;;;;;5099990;28;20197;-78
2023/04/15 09:42:04;;;;;;;4.15;0.98;;;;;;;;;;5125524;27;20307;-77
2023/04/15 09:44:33;;;;;;;5.30;1.17;;;;;;;;;;5113086;28;20197;-77
2023/04/15 09:47:00;;;;;;;2.92;0.82;;;;;;;;;;5106313;28;20210;-78
2023/04/15 09:49:28;;;;;;;2.30;0.82;;;;;;;;;;5113864;28;20669;-78
2023/04/15 09:51:58;;;;;;;3.45;1.10;;;;;;;;;;5111457;28;20229;-78
2023/04/15 09:54:26;;;;;;;3.58;1.10;;;;;;;;;;5112269;28;20294;-79
2023/04/15 09:56:53;;;;;;;7.07;1.30;;;;;;;;;;5112636;28;20201;-76
2023/04/15 09:59:20;;;;;;;4.32;1.00;;;;;;;;;;5106769;28;20281;-81
2023/04/15 10:01:48;;;;;;;3.08;0.90;;;;;;;;;;5112709;28;20194;-83
2023/04/15 10:04:16;;;;;;;2.67;0.98;;;;;;;;;;5110557;28;20616;-79
2023/04/15 10:06:43;;;;;;;4.63;0.85;;;;;;;;;;5110119;28;20286;-77
2023/04/15 10:09:11;;;;;;;3.42;0.80;;;;;;;;;;5106653;28;20249;-78
2023/04/15 10:11:38;;;;;;;2.75;0.80;;;;;;;;;;5103840;28;20233;-78
2023/04/15 10:14:06;;;;;;;2.72;0.90;;;;;;;;;;5113366;28;20654;-77
2023/04/15 10:16:34;;;;;;;4.47;0.88;;;;;;;;;;5109177;27;20327;-77
2023/04/15 10:19:03;;;;;;;3.95;1.27;;;;;;;;;;5113037;28;20230;-77
2023/04/15 10:21:31;;;;;;;3.50;1.00;;;;;;;;;;5112714;28;20208;-78
2023/04/15 10:23:58;;;;;;;5.32;1.00;;;;;;;;;;5112674;28;20237;-76
2023/04/15 10:26:26;;;;;;;4.28;0.80;;;;;;;;;;5113456;28;20300;-78
2023/04/15 10:28:53;;;;;;;3.75;0.80;;;;;;;;;;5113401;28;20225;-78
2023/04/15 10:31:21;;;;;;;3.42;0.80;;;;;;;;;;5108437;27;20324;-77
2023/04/15 10:33:49;;;;;;;2.20;0.70;;;;;;;;;;5110121;27;20222;-77
2023/04/15 10:36:17;;;;;;;3.90;0.95;;;;;;;;;;5112711;27;20571;-79
2023/04/15 10:38:45;;;;;;;2.50;0.75;;;;;;;;;;5112525;27;20215;-78
2023/04/15 10:41:13;;;;;;;2.67;0.80;;;;;;;;;;5112126;28;20312;-78
2023/04/15 10:43:41;;;;;;;3.28;0.93;;;;;;;;;;5112570;28;20208;-77
2023/04/15 10:46:08;;;;;;;3.38;0.68;;;;;;;;;;5112416;28;20198;-78
2023/04/15 10:48:35;;;;;;;2.63;0.60;;;;;;;;;;5112217;28;20313;-78
2023/04/15 10:51:03;;;;;;;2.67;1.10;;;;;;;;;;5112482;28;20249;-78
2023/04/15 10:53:36;;;;;;;3.17;0.90;;;;;;;;;;5112562;28;20251;-77
2023/04/15 10:56:05;;;;;;;1.65;0.80;;;;;;;;;;5112495;28;20229;-76
2023/04/15 10:58:41;;;;;;;5.18;0.90;;;;;;;;;;5112838;28;20198;-76
2023/04/15 11:01:09;;;;;;;3.55;1.10;;;;;;;;;;5112606;28;20205;-77
2023/04/15 11:03:40;;;;;;;2.20;0.90;;;;;;;;;;5111880;28;20270;-77
2023/04/15 11:06:08;;;;;;;1.73;0.70;;;;;;;;;;5112323;28;20198;-78
2023/04/15 11:08:50;;;;;;;2.38;0.73;;;;;;;;;;5112279;28;20214;-77
2023/04/15 11:11:18;;;;;;;2.28;0.75;;;;;;;;;;5109573;28;20217;-77
2023/04/15 11:13:49;;;;;;;6.63;0.85;;;;;;;;;;5112294;28;20225;-76
2023/04/15 11:16:16;;;;;;;3.95;0.88;;;;;;;;;;5111753;28;20297;-78
2023/04/15 11:18:43;;;;;;;4.57;0.70;;;;;;;;;;5099118;28;20286;-77
2023/04/15 11:21:10;;;;;;;2.47;0.60;;;;;;;;;;5101233;28;20666;-77
2023/04/15 11:23:39;;;;;;;3.90;0.60;;;;;;;;;;5106768;28;20285;-76
2023/04/15 11:26:10;;;;;;;2.58;0.75;;;;;;;;;;5108943;28;20201;-77
2023/04/15 11:28:40;;;;;;;1.40;0.70;;;;;;;;;;5109722;28;20650;-75
2023/04/15 11:31:10;;;;;;;2.92;1.02;;;;;;;;;;5108526;28;20202;-76
2023/04/15 11:33:37;;;;;;;3.80;0.88;;;;;;;;;;5108572;28;20194;-77
2023/04/15 11:36:05;;;;;;;5.88;1.20;;;;;;;;;;5117679;28;20709;-78
2023/04/15 11:38:32;;;;;;;1.77;0.63;;;;;;;;;;5113514;28;20218;-78
2023/04/15 11:40:59;;;;;;;3.58;0.77;;;;;;;;;;5110486;28;20264;-77
2023/04/15 11:43:26;;;;;;;2.47;0.70;;;;;;;;;;5108494;28;20578;-77
2023/04/15 11:45:56;;;;;;;3.70;0.95;;;;;;;;;;5109749;28;20652;-78
2023/04/15 11:48:24;;;;;;;2.67;0.80;;;;;;;;;;5108240;28;20294;-77
2023/04/15 11:50:55;;;;;;;3.25;0.90;;;;;;;;;;5111120;28;20222;-79
2023/04/15 11:53:22;;;;;;;2.45;0.77;;;;;;;;;;5108590;28;20230;-77
2023/04/15 11:55:50;;;;;;;4.50;0.73;;;;;;;;;;5111587;28;20186;-78
2023/04/15 11:58:20;;;;;;;4.25;0.73;;;;;;;;;;5110972;28;20190;-76
2023/04/15 12:00:48;;;;;;;3.08;0.65;;;;;;;;;;5110449;28;20656;-77
2023/04/15 12:03:20;;;;;;;3.53;0.98;;;;;;;;;;5109443;28;20225;-76
2023/04/15 12:06:06;;;;;;;5.05;1.02;;;;;;;;;;5111160;28;20251;-77
2023/04/15 12:08:49;;;;;;;2.97;0.77;;;;;;;;;;5108118;28;20213;-75
2023/04/15 12:11:17;;;;;;;3.25;1.00;;;;;;;;;;5109435;28;20277;-78
2023/04/15 12:13:44;;;;;;;2.72;0.70;;;;;;;;;;5110735;28;20280;-74
2023/04/15 12:16:11;;;;;;;4.40;1.02;;;;;;;;;;5110239;28;20288;-75
2023/04/15 12:18:40;;;;;;;2.60;1.05;;;;;;;;;;5110426;28;20615;-76
2023/04/15 12:21:10;;;;;;;1.95;0.70;;;;;;;;;;5110703;28;20656;-77
2023/04/15 12:23:38;;;;;;;2.45;0.77;;;;;;;;;;5111273;28;20193;-76
2023/04/15 12:26:06;;;;;;;1.55;0.63;;;;;;;;;;5109361;28;20280;-77
2023/04/15 12:28:35;;;;;;;3.17;0.93;;;;;;;;;;5105342;28;20202;-75
2023/04/15 12:31:07;;;;;;;2.03;0.70;;;;;;;;;;5107517;28;20209;-78
2023/04/15 12:33:34;;;;;;;4.07;1.10;;;;;;;;;;5111265;28;20232;-79
2023/04/15 12:36:03;;;;;;;2.53;0.68;;;;;;;;;;5111110;28;20749;-78
2023/04/15 12:38:31;;;;;;;1.83;0.73;;;;;;;;;;5111506;28;20218;-78
2023/04/15 12:40:58;;;;;;;2.30;0.68;;;;;;;;;;5111166;28;20257;-78
2023/04/15 12:43:26;;;;;;;1.95;0.80;;;;;;;;;;5111379;28;20301;-78
2023/04/15 12:45:53;;;;;;;4.85;0.85;;;;;;;;;;5110886;28;20250;-78
2023/04/15 12:48:20;;;;;;;4.70;0.90;;;;;;;;;;5111737;28;20190;-78
2023/04/15 12:50:47;;;;;;;3.78;0.70;;;;;;;;;;5111415;28;20281;-79
2023/04/15 12:53:16;;;;;;;2.45;1.00;;;;;;;;;;5111058;28;20615;-79
2023/04/15 12:55:43;;;;;;;2.67;0.88;;;;;;;;;;5111445;28;20574;-78
2023/04/15 12:58:10;;;;;;;1.95;0.60;;;;;;;;;;5111114;28;20346;-79
2023/04/15 13:00:38;;;;;;;3.00;0.70;;;;;;;;;;5111076;28;20237;-78
2023/04/15 13:03:05;;;;;;;3.90;0.80;;;;;;;;;;5110965;28;20205;-78
2023/04/15 13:05:32;;;;;;;2.47;0.98;;;;;;;;;;5110995;28;20190;-78
2023/04/15 13:07:59;;;;;;;4.15;0.82;;;;;;;;;;5111706;28;20573;-79
2023/04/15 13:10:28;;;;;;;2.20;0.90;;;;;;;;;;5115467;28;20281;-77
2023/04/15 13:12:55;;;;;;;3.10;0.80;;;;;;;;;;5114417;28;20316;-78
2023/04/15 13:15:22;;;;;;;2.92;1.23;;;;;;;;;;5114406;28;20204;-79
2023/04/15 13:17:50;;;;;;;2.17;0.90;;;;;;;;;;5115119;28;20688;-78
2023/04/15 13:20:17;;;;;;;1.98;0.80;;;;;;;;;;5115052;28;20221;-79
2023/04/15 13:22:44;;;;;;;2.45;0.82;;;;;;;;;;5114566;28;20650;-79
2023/04/15 13:25:11;;;;;;;2.92;0.93;;;;;;;;;;5114994;28;20656;-78
2023/04/15 13:27:40;;;;;;;3.88;1.10;;;;;;;;;;5114138;28;20771;-78
2023/04/15 13:30:08;;;;;;;2.17;0.90;;;;;;;;;;5114422;28;20255;-77
2023/04/15 13:32:35;;;;;;;2.42;1.00;;;;;;;;;;5114679;28;20270;-78
2023/04/15 13:35:02;;;;;;;3.30;0.80;;;;;;;;;;5114849;28;20216;-78
2023/04/15 13:37:30;;;;;;;2.92;0.70;;;;;;;;;;5114769;28;20302;-76
2023/04/15 13:39:57;;;;;;;2.33;0.70;;;;;;;;;;5114256;28;20205;-77
2023/04/15 13:42:25;;;;;;;2.70;0.90;;;;;;;;;;5114117;28;20324;-77
2023/04/15 13:44:53;;;;;;;1.77;0.80;;;;;;;;;;5114498;28;20235;-78
2023/04/15 13:47:20;;;;;;;3.15;1.00;;;;;;;;;;5106231;28;20290;-79
2023/04/15 13:49:48;;;;;;;2.78;0.90;;;;;;;;;;5095383;28;20250;-78
2023/04/15 13:52:15;;;;;;;3.78;0.85;;;;;;;;;;5093784;28;20257;-77
2023/04/15 13:54:42;;;;;;;1.90;0.63;;;;;;;;;;5093410;28;20293;-78
2023/04/15 13:57:09;;;;;;;4.00;0.93;;;;;;;;;;5094265;28;20670;-79
2023/04/15 13:59:36;;;;;;;3.63;0.77;;;;;;;;;;5107824;28;20276;-78
2023/04/15 14:02:05;;;;;;;2.92;0.80;;;;;;;;;;5113488;28;20285;-79
2023/04/15 14:04:32;;;;;;;3.33;0.70;;;;;;;;;;5113415;28;20209;-79
2023/04/15 14:06:59;;;;;;;5.38;0.80;;;;;;;;;;5111863;28;20234;-80
2023/04/15 14:09:27;;;;;;;1.88;0.63;;;;;;;;;;5102267;28;20245;-79
2023/04/15 14:11:55;;;;;;;1.27;0.68;;;;;;;;;;5111927;27;20811;-80
2023/04/15 14:14:22;;;;;;;2.75;0.80;;;;;;;;;;5103421;28;20202;-78
2023/04/15 14:16:49;;;;;;;2.78;1.10;;;;;;;;;;5113417;28;20326;-79
2023/04/15 14:19:18;;;;;;;3.65;1.00;;;;;;;;;;5113166;28;20602;-77
2023/04/15 14:21:45;;;;;;;2.28;0.80;;;;;;;;;;5092565;28;20194;-78
2023/04/15 14:24:12;;;;;;;2.20;0.60;;;;;;;;;;5092327;28;20233;-79
2023/04/15 14:26:39;;;;;;;2.88;0.88;;;;;;;;;;5092193;28;20290;-78
2023/04/15 14:29:06;;;;;;;1.98;0.93;;;;;;;;;;5098910;28;20584;-78
2023/04/15 14:31:34;;;;;;;1.63;0.63;;;;;;;;;;5113197;28;20198;-77
2023/04/15 14:34:01;;;;;;;2.40;1.00;;;;;;;;;;5113174;28;20225;-77
2023/04/15 14:36:30;;;;;;;4.07;0.73;;;;;;;;;;5113190;28;20236;-78
2023/04/15 14:38:58;;;;;;;3.38;1.02;;;;;;;;;;5113692;28;20285;-78
2023/04/15 14:41:25;;;;;;;3.10;0.60;;;;;;;;;;5112077;28;20332;-78
2023/04/15 14:43:52;;;;;;;1.95;0.60;;;;;;;;;;5112983;28;20198;-78
2023/04/15 14:46:20;;;;;;;2.30;0.50;;;;;;;;;;5113519;27;20710;-79